Time;durP1;ratioP1;P1;durP2;ratioP2;P2;SDS_P1;SDS_P2;PMS_P1;PMS_P2;Temp;Humidity;BMP_temperature;BMP_pressure;BME280_temperature;BME280_humidity;BME280_pressure;Samples;Min_cycle;Max_cycle;Signal;HPM_P1;HPM_P2
2023/08/16 00:01:17;;;;;;;3.33;3.13;;;;;;;;;;4973867;28;20393;-78
2023/08/16 00:03:43;;;;;;;2.78;2.58;;;;;;;;;;4968799;28;20437;-77
2023/08/16 00:06:13;;;;;;;2.88;2.67;;;;;;;;;;4973066;28;20026;-77
2023/08/16 00:08:40;;;;;;;2.88;2.67;;;;;;;;;;4972016;28;20094;-78
2023/08/16 00:11:06;;;;;;;3.20;3.00;;;;;;;;;;4959366;28;20107;-77
2023/08/16 00:13:33;;;;;;;2.63;2.42;;;;;;;;;;4972728;28;20089;-77
2023/08/16 00:16:00;;;;;;;2.92;2.72;;;;;;;;;;4967845;28;20030;-76
2023/08/16 00:18:26;;;;;;;2.50;2.30;;;;;;;;;;4973397;28;20023;-77
2023/08/16 00:20:52;;;;;;;2.75;2.55;;;;;;;;;;4981437;28;20041;-77
2023/08/16 00:23:18;;;;;;;2.85;2.65;;;;;;;;;;4978335;28;20030;-76
2023/08/16 00:25:44;;;;;;;2.42;2.22;;;;;;;;;;4976684;28;20023;-75
2023/08/16 00:28:10;;;;;;;2.63;2.42;;;;;;;;;;4978271;28;20033;-76
2023/08/16 00:30:36;;;;;;;2.42;2.33;;;;;;;;;;4979699;28;20042;-77
2023/08/16 00:33:02;;;;;;;2.28;2.17;;;;;;;;;;4971218;28;20030;-77
2023/08/16 00:35:29;;;;;;;2.20;2.10;;;;;;;;;;4967170;28;20027;-77
2023/08/16 00:37:58;;;;;;;2.08;1.98;;;;;;;;;;4956544;28;20023;-77
2023/08/16 00:40:24;;;;;;;2.05;1.95;;;;;;;;;;4972340;28;20023;-78
2023/08/16 00:42:50;;;;;;;2.47;2.28;;;;;;;;;;4955507;28;20045;-78
2023/08/16 00:45:16;;;;;;;2.33;2.22;;;;;;;;;;4972357;28;20453;-77
2023/08/16 00:47:43;;;;;;;1.88;1.77;;;;;;;;;;4969495;28;20118;-77
2023/08/16 00:50:10;;;;;;;1.80;1.70;;;;;;;;;;4973355;28;20377;-77
2023/08/16 00:52:37;;;;;;;2.00;1.90;;;;;;;;;;4972448;28;20449;-78
2023/08/16 00:55:03;;;;;;;2.00;1.90;;;;;;;;;;4972764;28;20031;-77
2023/08/16 00:57:30;;;;;;;1.92;1.83;;;;;;;;;;4978656;28;20125;-80
2023/08/16 00:59:56;;;;;;;1.88;1.77;;;;;;;;;;4988834;28;20011;-81
2023/08/16 01:02:23;;;;;;;2.03;1.92;;;;;;;;;;4965870;28;20090;-76
2023/08/16 01:04:49;;;;;;;1.70;1.60;;;;;;;;;;4968096;28;20031;-77
2023/08/16 01:07:15;;;;;;;1.90;1.80;;;;;;;;;;4973686;28;20105;-77
2023/08/16 01:09:42;;;;;;;2.00;1.90;;;;;;;;;;4973502;28;20030;-77
2023/08/16 01:12:28;;;;;;;1.83;1.73;;;;;;;;;;4973291;28;20122;-77
2023/08/16 01:15:00;;;;;;;2.20;2.10;;;;;;;;;;4964583;28;20093;-77
2023/08/16 01:17:27;;;;;;;2.42;2.33;;;;;;;;;;4974699;28;20052;-77
2023/08/16 01:19:56;;;;;;;2.55;2.35;;;;;;;;;;4957946;28;20029;-78
2023/08/16 01:22:41;;;;;;;2.75;2.53;;;;;;;;;;4976084;28;20114;-77
2023/08/16 01:25:10;;;;;;;2.92;2.72;;;;;;;;;;4969414;28;20041;-77
2023/08/16 01:27:36;;;;;;;2.60;2.40;;;;;;;;;;4975887;28;20030;-76
2023/08/16 01:30:04;;;;;;;2.40;2.30;;;;;;;;;;4958727;28;20056;-77
2023/08/16 01:32:31;;;;;;;2.75;2.55;;;;;;;;;;4976320;28;20110;-77
2023/08/16 01:34:57;;;;;;;2.28;2.13;;;;;;;;;;4958478;28;20037;-77
2023/08/16 01:37:24;;;;;;;2.53;2.33;;;;;;;;;;4965087;28;20035;-77
2023/08/16 01:39:50;;;;;;;2.03;1.92;;;;;;;;;;4951249;28;20027;-77
2023/08/16 01:42:17;;;;;;;2.08;1.98;;;;;;;;;;4977089;28;20047;-77
2023/08/16 01:44:46;;;;;;;2.20;2.10;;;;;;;;;;4976245;28;20018;-77
2023/08/16 01:47:13;;;;;;;2.63;2.42;;;;;;;;;;4970835;28;20019;-77
2023/08/16 01:49:41;;;;;;;2.53;2.33;;;;;;;;;;4958265;28;20030;-76
2023/08/16 01:52:07;;;;;;;2.42;2.33;;;;;;;;;;4953678;28;20034;-77
2023/08/16 01:54:33;;;;;;;2.20;2.10;;;;;;;;;;4975273;28;20408;-77
2023/08/16 01:57:00;;;;;;;2.80;2.60;;;;;;;;;;4970133;28;20035;-76
2023/08/16 01:59:26;;;;;;;1.95;1.85;;;;;;;;;;4972608;28;20023;-78
2023/08/16 02:01:52;;;;;;;2.15;2.05;;;;;;;;;;4974821;28;20088;-76
2023/08/16 02:04:18;;;;;;;2.28;2.17;;;;;;;;;;4975304;28;20038;-77
2023/08/16 02:06:44;;;;;;;1.98;1.88;;;;;;;;;;4972536;28;20041;-78
2023/08/16 02:09:10;;;;;;;2.22;2.13;;;;;;;;;;4972671;28;20081;-77
2023/08/16 02:11:36;;;;;;;2.10;2.00;;;;;;;;;;4975484;28;20504;-77
2023/08/16 02:14:03;;;;;;;2.35;2.25;;;;;;;;;;4950246;28;20485;-77
2023/08/16 02:16:29;;;;;;;2.38;2.20;;;;;;;;;;4975064;28;20105;-77
2023/08/16 02:18:55;;;;;;;2.38;2.22;;;;;;;;;;4972742;28;20029;-77
2023/08/16 02:21:21;;;;;;;2.10;2.00;;;;;;;;;;4975011;28;20019;-77
2023/08/16 02:23:47;;;;;;;2.20;2.10;;;;;;;;;;4974283;28;20470;-77
2023/08/16 02:26:13;;;;;;;2.22;2.13;;;;;;;;;;4956435;28;20023;-77
2023/08/16 02:28:39;;;;;;;2.60;2.40;;;;;;;;;;4971524;28;20097;-76
2023/08/16 02:31:06;;;;;;;2.60;2.40;;;;;;;;;;4974824;28;20027;-77
2023/08/16 02:33:33;;;;;;;2.95;2.75;;;;;;;;;;4974421;28;20031;-78
2023/08/16 02:35:59;;;;;;;3.47;3.22;;;;;;;;;;4974759;28;20039;-76
2023/08/16 02:38:25;;;;;;;2.90;2.70;;;;;;;;;;4974122;28;20114;-77
2023/08/16 02:40:51;;;;;;;2.35;2.25;;;;;;;;;;4966817;28;20122;-77
2023/08/16 02:43:17;;;;;;;2.53;2.33;;;;;;;;;;4966886;28;20023;-77
2023/08/16 02:45:44;;;;;;;2.47;2.28;;;;;;;;;;4956016;28;20026;-78
2023/08/16 02:48:10;;;;;;;2.70;2.50;;;;;;;;;;4974390;28;20027;-78
2023/08/16 02:50:36;;;;;;;2.40;2.25;;;;;;;;;;4972677;28;20031;-77
2023/08/16 02:53:02;;;;;;;2.58;2.40;;;;;;;;;;4974221;28;20102;-77
2023/08/16 02:55:28;;;;;;;2.30;2.20;;;;;;;;;;4974649;28;20082;-78
2023/08/16 02:57:54;;;;;;;2.53;2.38;;;;;;;;;;4974718;28;20019;-78
2023/08/16 03:00:20;;;;;;;2.33;2.22;;;;;;;;;;4966596;28;20034;-76
2023/08/16 03:02:46;;;;;;;2.13;1.92;;;;;;;;;;4971960;28;20023;-77
2023/08/16 03:05:12;;;;;;;2.30;2.10;;;;;;;;;;4971043;28;20027;-76
2023/08/16 03:07:39;;;;;;;2.10;2.00;;;;;;;;;;4974052;28;20508;-77
2023/08/16 03:10:06;;;;;;;2.22;2.13;;;;;;;;;;4973998;28;20029;-76
2023/08/16 03:12:32;;;;;;;1.85;1.75;;;;;;;;;;4956811;28;20031;-76
2023/08/16 03:14:58;;;;;;;2.10;2.00;;;;;;;;;;4973822;28;20034;-77
2023/08/16 03:17:25;;;;;;;2.10;2.00;;;;;;;;;;4974347;28;20019;-77
2023/08/16 03:19:51;;;;;;;2.53;2.33;;;;;;;;;;4965729;28;20030;-78
2023/08/16 03:22:17;;;;;;;1.95;1.85;;;;;;;;;;4974453;28;20023;-76
2023/08/16 03:24:43;;;;;;;1.83;1.73;;;;;;;;;;4977488;28;20019;-76
2023/08/16 03:27:09;;;;;;;2.20;2.10;;;;;;;;;;4976886;28;20019;-77
2023/08/16 03:29:35;;;;;;;2.15;2.05;;;;;;;;;;4957932;28;20530;-77
2023/08/16 03:32:01;;;;;;;1.95;1.85;;;;;;;;;;4982584;28;20027;-76
2023/08/16 03:34:30;;;;;;;1.92;1.83;;;;;;;;;;4978642;28;20026;-79
2023/08/16 03:36:56;;;;;;;1.60;1.50;;;;;;;;;;4973592;28;20056;-78
2023/08/16 03:39:22;;;;;;;1.60;1.52;;;;;;;;;;4973895;28;20023;-77
2023/08/16 03:41:48;;;;;;;1.50;1.40;;;;;;;;;;4974113;28;20037;-77
2023/08/16 03:44:14;;;;;;;1.80;1.70;;;;;;;;;;4975774;28;20018;-77
2023/08/16 03:46:40;;;;;;;2.03;1.92;;;;;;;;;;4956369;28;20043;-77
2023/08/16 03:49:07;;;;;;;1.73;1.63;;;;;;;;;;4973904;28;20031;-76
2023/08/16 03:51:33;;;;;;;1.80;1.70;;;;;;;;;;4949430;28;20406;-77
2023/08/16 03:53:59;;;;;;;1.77;1.67;;;;;;;;;;4974045;28;20326;-77
2023/08/16 03:56:25;;;;;;;1.45;1.35;;;;;;;;;;4973942;28;20035;-76
2023/08/16 03:58:51;;;;;;;1.58;1.55;;;;;;;;;;4973941;28;20015;-77
2023/08/16 04:01:18;;;;;;;1.58;1.58;;;;;;;;;;4966816;28;20027;-77
2023/08/16 04:03:44;;;;;;;1.42;1.40;;;;;;;;;;4964043;28;20031;-81
2023/08/16 04:06:11;;;;;;;1.40;1.40;;;;;;;;;;4996519;28;20039;-81
2023/08/16 04:08:38;;;;;;;1.70;1.60;;;;;;;;;;4975397;28;20045;-77
2023/08/16 04:11:04;;;;;;;1.75;1.65;;;;;;;;;;4981615;28;20041;-78
2023/08/16 04:13:30;;;;;;;1.98;1.88;;;;;;;;;;4986454;28;20158;-78
2023/08/16 04:15:56;;;;;;;1.55;1.45;;;;;;;;;;4979376;28;20027;-79
2023/08/16 04:18:22;;;;;;;1.55;1.45;;;;;;;;;;4990304;28;20034;-78
2023/08/16 04:20:48;;;;;;;1.40;1.40;;;;;;;;;;4954375;28;20019;-78
2023/08/16 04:23:14;;;;;;;1.25;1.25;;;;;;;;;;4980399;28;20050;-79
2023/08/16 04:25:41;;;;;;;1.67;1.58;;;;;;;;;;4971437;28;20037;-79
2023/08/16 04:28:07;;;;;;;1.30;1.30;;;;;;;;;;4964439;28;20023;-79
2023/08/16 04:30:33;;;;;;;1.52;1.42;;;;;;;;;;4952769;28;20114;-80
2023/08/16 04:33:00;;;;;;;1.20;1.20;;;;;;;;;;4960614;28;20041;-78
2023/08/16 04:35:26;;;;;;;1.25;1.25;;;;;;;;;;4974056;28;20046;-79
2023/08/16 04:37:52;;;;;;;1.40;1.33;;;;;;;;;;4974425;28;20023;-80
2023/08/16 04:40:18;;;;;;;1.70;1.60;;;;;;;;;;4954759;28;20027;-79
2023/08/16 04:42:44;;;;;;;1.38;1.38;;;;;;;;;;4966332;28;20023;-79
2023/08/16 04:45:10;;;;;;;1.95;1.85;;;;;;;;;;4956249;28;20058;-80
2023/08/16 04:47:37;;;;;;;2.38;2.25;;;;;;;;;;4965304;28;20028;-80
2023/08/16 04:50:06;;;;;;;2.45;2.25;;;;;;;;;;4969064;28;20086;-79
2023/08/16 04:52:32;;;;;;;2.85;2.65;;;;;;;;;;4958762;28;20030;-78
2023/08/16 04:54:59;;;;;;;2.13;2.03;;;;;;;;;;4977414;28;20389;-78
2023/08/16 04:57:25;;;;;;;2.05;1.95;;;;;;;;;;4977124;28;20055;-80
2023/08/16 04:59:51;;;;;;;1.75;1.65;;;;;;;;;;4976758;28;20054;-79
2023/08/16 05:02:17;;;;;;;1.50;1.40;;;;;;;;;;4961038;28;20030;-80
2023/08/16 05:04:43;;;;;;;1.77;1.67;;;;;;;;;;4969464;28;20027;-79
2023/08/16 05:07:10;;;;;;;1.85;1.75;;;;;;;;;;4978541;28;20023;-79
2023/08/16 05:09:36;;;;;;;2.00;1.90;;;;;;;;;;4971284;28;20504;-79
2023/08/16 05:12:02;;;;;;;1.38;1.38;;;;;;;;;;4969161;28;20023;-80
2023/08/16 05:14:28;;;;;;;1.58;1.48;;;;;;;;;;4971614;28;20459;-79
2023/08/16 05:16:54;;;;;;;1.85;1.75;;;;;;;;;;4971395;28;20085;-79
2023/08/16 05:19:20;;;;;;;1.60;1.50;;;;;;;;;;4958238;28;20054;-78
2023/08/16 05:21:46;;;;;;;1.70;1.60;;;;;;;;;;4976963;28;20030;-76
2023/08/16 05:24:12;;;;;;;1.75;1.65;;;;;;;;;;4975584;28;20029;-77
2023/08/16 05:26:38;;;;;;;1.75;1.65;;;;;;;;;;4971261;28;20026;-77
2023/08/16 05:29:05;;;;;;;1.52;1.42;;;;;;;;;;4970278;28;20454;-76
2023/08/16 05:31:31;;;;;;;1.65;1.55;;;;;;;;;;4975971;28;20490;-77
2023/08/16 05:33:57;;;;;;;1.42;1.40;;;;;;;;;;4976283;28;20130;-77
2023/08/16 05:36:23;;;;;;;2.13;1.92;;;;;;;;;;4976322;28;20626;-77
2023/08/16 05:38:49;;;;;;;1.77;1.67;;;;;;;;;;4976190;28;20026;-77
2023/08/16 05:41:15;;;;;;;2.00;1.90;;;;;;;;;;4977240;28;20049;-77
2023/08/16 05:43:41;;;;;;;1.67;1.58;;;;;;;;;;4976791;28;20019;-78
2023/08/16 05:46:07;;;;;;;1.48;1.40;;;;;;;;;;4977436;28;20026;-77
2023/08/16 05:48:34;;;;;;;1.65;1.55;;;;;;;;;;4976622;28;20030;-77
2023/08/16 05:51:00;;;;;;;1.80;1.70;;;;;;;;;;4960052;28;20398;-80
2023/08/16 05:53:26;;;;;;;1.38;1.35;;;;;;;;;;4976511;28;20486;-77
2023/08/16 05:55:52;;;;;;;1.55;1.52;;;;;;;;;;4975704;28;20030;-77
2023/08/16 05:58:18;;;;;;;1.60;1.50;;;;;;;;;;4976525;28;20022;-77
2023/08/16 06:00:46;;;;;;;1.60;1.60;;;;;;;;;;4976324;28;20069;-77
2023/08/16 06:03:14;;;;;;;2.30;2.10;;;;;;;;;;4975973;28;20026;-76
2023/08/16 06:05:40;;;;;;;1.83;1.73;;;;;;;;;;4959527;28;20031;-76
2023/08/16 06:08:08;;;;;;;1.63;1.58;;;;;;;;;;4956865;28;20118;-77
2023/08/16 06:10:34;;;;;;;1.52;1.42;;;;;;;;;;4973472;28;20038;-78
2023/08/16 06:13:00;;;;;;;2.03;1.92;;;;;;;;;;4975831;28;20031;-77
2023/08/16 06:15:26;;;;;;;2.00;1.90;;;;;;;;;;4975385;28;20019;-79
2023/08/16 06:17:52;;;;;;;2.08;1.98;;;;;;;;;;4976477;28;20507;-77
2023/08/16 06:20:18;;;;;;;2.03;1.92;;;;;;;;;;4982004;28;20031;-78
2023/08/16 06:22:45;;;;;;;1.50;1.50;;;;;;;;;;4978936;28;20019;-78
2023/08/16 06:25:10;;;;;;;1.77;1.67;;;23.20;99.90;;;;;;4977841;28;20041;-76
2023/08/16 06:27:36;;;;;;;1.70;1.60;;;25.10;96.90;;;;;;4986759;28;20035;-77
2023/08/16 06:30:02;;;;;;;1.40;1.40;;;27.10;91.50;;;;;;4972335;28;20023;-78
2023/08/16 06:32:27;;;;;;;1.40;1.40;;;28.80;85.70;;;;;;4977274;28;20034;-78
2023/08/16 06:34:53;;;;;;;1.00;1.00;;;30.10;79.00;;;;;;4960127;28;20041;-78
2023/08/16 06:37:20;;;;;;;0.90;0.90;;;31.10;72.50;;;;;;4979817;28;20054;-77
2023/08/16 06:39:46;;;;;;;0.95;0.95;;;31.80;68.10;;;;;;4976540;28;20038;-77
2023/08/16 06:42:11;;;;;;;0.93;0.93;;;32.30;64.70;;;;;;4976582;28;20023;-78
2023/08/16 06:44:37;;;;;;;1.00;1.00;;;32.60;62.00;;;;;;4975496;28;20027;-78
2023/08/16 06:47:03;;;;;;;1.05;1.05;;;32.90;60.70;;;;;;4958725;28;20027;-78
2023/08/16 06:49:30;;;;;;;1.00;1.00;;;32.90;59.50;;;;;;4968784;28;20389;-77
2023/08/16 06:51:55;;;;;;;1.00;1.00;;;33.20;58.80;;;;;;4976028;28;20026;-76
2023/08/16 06:54:21;;;;;;;0.80;0.80;;;33.40;58.60;;;;;;4958692;28;20113;-78
2023/08/16 06:56:47;;;;;;;0.88;0.88;;;33.10;57.20;;;;;;4957718;28;20089;-78
2023/08/16 06:59:12;;;;;;;0.90;0.90;;;31.50;57.70;;;;;;4973843;28;20015;-79
2023/08/16 07:01:38;;;;;;;0.90;0.90;;;29.50;60.90;;;;;;4972914;28;20116;-76
2023/08/16 07:04:04;;;;;;;0.75;0.75;;;27.60;65.40;;;;;;4944430;28;20106;-77
2023/08/16 07:06:32;;;;;;;0.70;0.70;;;26.10;70.00;;;;;;4976789;28;20055;-79
2023/08/16 07:08:59;;;;;;;0.57;0.57;;;25.00;73.90;;;;;;4976923;28;20030;-82
2023/08/16 07:11:25;;;;;;;1.08;1.08;;;24.30;77.90;;;;;;4964952;28;20053;-80
2023/08/16 07:13:52;;;;;;;0.80;0.80;;;23.70;81.00;;;;;;4960819;28;20027;-82
2023/08/16 07:16:18;;;;;;;0.93;0.93;;;23.20;83.80;;;;;;4961083;28;20031;-82
2023/08/16 07:18:45;;;;;;;1.25;1.17;;;;;;;;;;4986080;28;20030;-82
2023/08/16 07:21:11;;;;;;;1.33;1.33;;;;;;;;;;4978494;28;20109;-83
2023/08/16 07:23:37;;;;;;;1.85;1.10;;;;;;;;;;4984008;28;20019;-82
2023/08/16 07:26:04;;;;;;;1.25;1.25;;;;;;;;;;4996976;28;20031;-83
2023/08/16 07:28:30;;;;;;;1.40;1.35;;;;;;;;;;4997878;28;20019;-82
2023/08/16 07:30:56;;;;;;;1.30;1.30;;;;;;;;;;4970026;28;20030;-81
2023/08/16 07:33:22;;;;;;;1.33;1.23;;;;;;;;;;4987441;28;20030;-81
2023/08/16 07:35:49;;;;;;;1.48;1.45;;;;;;;;;;4982963;28;20075;-81
2023/08/16 07:38:15;;;;;;;1.60;1.50;;;;;;;;;;4983339;28;20038;-82
2023/08/16 07:40:47;;;;;;;1.38;1.38;;;;;;;;;;4983195;28;20413;-82
2023/08/16 07:43:13;;;;;;;;;;;;;;;;;;4972255;28;20042;-81
2023/08/16 07:45:39;;;;;;;2.03;1.63;;;;;;;;;;4984055;28;19906;-82
2023/08/16 07:48:05;;;;;;;1.50;1.50;;;;;;;;;;4983665;28;20018;-82
2023/08/16 07:50:31;;;;;;;1.88;1.77;;;;;;;;;;4983473;28;20027;-82
2023/08/16 07:52:57;;;;;;;2.03;1.92;;;;;;;;;;4975006;28;20080;-81
2023/08/16 07:55:29;;;;;;;2.00;1.90;;;;;;;;;;4991361;28;20037;-82
2023/08/16 07:57:55;;;;;;;1.83;1.73;;;;;;;;;;4990625;28;20027;-81
2023/08/16 08:00:21;;;;;;;2.05;1.95;;;;;;;;;;4973358;28;20042;-82
2023/08/16 08:02:48;;;;;;;1.80;1.70;;;;;;;;;;4978642;28;20023;-81
2023/08/16 08:05:15;;;;;;;2.00;1.90;;;;;;;;;;4967218;28;20161;-81
2023/08/16 08:07:41;;;;;;;1.60;1.50;;;;;;;;;;4964244;29;20028;-82
2023/08/16 08:10:08;;;;;;;1.35;1.33;;;;;;;;;;4964209;29;20027;-82
2023/08/16 08:12:34;;;;;;;1.70;1.60;;;;;;;;;;4971287;28;20050;-81
2023/08/16 08:15:01;;;;;;;1.20;1.20;;;;;;;;;;4975315;28;20201;-81
2023/08/16 08:17:27;;;;;;;1.60;1.50;;;;;;;;;;4986838;28;20449;-82
2023/08/16 08:19:53;;;;;;;1.60;1.50;;;;;;;;;;4968631;28;20095;-82
2023/08/16 08:22:19;;;;;;;1.90;1.80;;;;;;;;;;4962473;28;20028;-82
2023/08/16 08:24:45;;;;;;;1.55;1.52;;;;;;;;;;4963893;29;20020;-81
2023/08/16 08:27:11;;;;;;;1.55;1.45;;;;;;;;;;4962712;28;20027;-81
2023/08/16 08:29:39;;;;;;;1.70;1.60;;;;;;;;;;4946033;29;20032;-82
2023/08/16 08:32:05;;;;;;;1.90;1.80;;;;;;;;;;4976660;28;20053;-82
2023/08/16 08:34:32;;;;;;;2.03;1.83;;;;;;;;;;4981491;28;20056;-83
2023/08/16 08:37:00;;;;;;;1.70;1.60;;;;;;;;;;4982003;28;20019;-82
2023/08/16 08:39:28;;;;;;;1.70;1.60;;;;;;;;;;4964846;28;20102;-82
2023/08/16 08:41:55;;;;;;;1.95;1.85;;;;;;;;;;4972091;28;20027;-81
2023/08/16 08:44:22;;;;;;;3.45;1.85;;;;;;;;;;4963688;29;20431;-83
2023/08/16 08:46:49;;;;;;;1.75;1.65;;;;;;;;;;4962030;29;20031;-82
2023/08/16 08:49:15;;;;;;;2.05;1.95;;;;;;;;;;4968964;28;20037;-82
2023/08/16 08:51:42;;;;;;;1.98;1.88;;;;;;;;;;4981320;28;20023;-83
2023/08/16 08:54:08;;;;;;;1.75;1.65;;;;;;;;;;4973669;28;20038;-82
2023/08/16 08:56:35;;;;;;;1.75;1.65;;;;;;;;;;4963462;28;20097;-82
2023/08/16 08:59:02;;;;;;;2.08;1.98;;;;;;;;;;4963387;28;20022;-82
2023/08/16 09:01:29;;;;;;;1.77;1.67;;;;;;;;;;4980575;28;20031;-82
2023/08/16 09:03:56;;;;;;;1.95;1.85;;;;;;;;;;4944356;29;20114;-83
2023/08/16 09:06:22;;;;;;;1.65;1.55;;;;;;;;;;4963157;29;20062;-81
2023/08/16 09:08:49;;;;;;;2.25;2.05;;;;;;;;;;4950348;29;20011;-81
2023/08/16 09:11:15;;;;;;;2.10;2.00;;;;;;;;;;4958852;28;20039;-82
2023/08/16 09:13:41;;;;;;;2.03;1.92;;;;;;;;;;4975662;28;20027;-81
2023/08/16 09:16:07;;;;;;;2.00;1.90;;;;;;;;;;4977452;28;20055;-81
2023/08/16 09:18:34;;;;;;;1.80;1.70;;;;;;;;;;4972157;28;20067;-80
2023/08/16 09:21:00;;;;;;;2.20;2.08;;;;;;;;;;4985997;28;20042;-82
2023/08/16 09:23:26;;;;;;;2.08;1.98;;;;;;;;;;4979837;28;20135;-80
2023/08/16 09:25:52;;;;;;;1.92;1.83;;;;;;;;;;4965715;28;20023;-80
2023/08/16 09:28:19;;;;;;;2.40;2.15;;;;;;;;;;4966028;28;20035;-82
2023/08/16 09:30:45;;;;;;;2.28;2.15;;;;;;;;;;4959949;28;20445;-78
2023/08/16 09:33:15;;;;;;;2.25;2.00;;;;;;;;;;4977682;28;20023;-79
2023/08/16 09:35:49;;;;;;;2.88;2.00;;;;;;;;;;4946838;29;20035;-81
2023/08/16 09:38:15;;;;;;;2.45;2.22;;;;;;;;;;4971649;28;20033;-81
2023/08/16 09:40:49;;;;;;;1.80;1.80;;;;;;;;;;4987397;28;20071;-80
2023/08/16 09:43:15;;;;;;;2.42;2.22;;;;;;;;;;4964095;28;20041;-82
2023/08/16 09:45:41;;;;;;;1.77;1.70;;;;;;;;;;4985939;28;20038;-82
2023/08/16 09:48:09;;;;;;;1.88;1.77;;;;;;;;;;4984034;28;20031;-80
2023/08/16 09:50:35;;;;;;;1.98;1.88;;;;;;;;;;4985683;28;20087;-81
2023/08/16 09:53:05;;;;;;;2.65;2.45;;;;;;;;;;4980640;28;20019;-81
2023/08/16 09:55:35;;;;;;;2.50;2.33;;;;;;;;;;4960791;28;20462;-82
2023/08/16 09:58:02;;;;;;;2.95;2.20;;;;;;;;;;4985074;28;20541;-79
2023/08/16 10:00:28;;;;;;;3.22;2.22;;;;;;;;;;4963311;28;20023;-80
2023/08/16 10:02:55;;;;;;;1.88;1.77;;;;;;;;;;4979892;28;20074;-82
2023/08/16 10:05:21;;;;;;;2.00;1.90;;;;;;;;;;4962381;28;20046;-79
2023/08/16 10:07:48;;;;;;;2.30;2.10;;;;;;;;;;4982993;28;20023;-80
2023/08/16 10:10:15;;;;;;;1.90;1.80;;;;;;;;;;4966358;28;20076;-81
2023/08/16 10:12:42;;;;;;;2.40;2.28;;;;;;;;;;4967382;28;20027;-81
2023/08/16 10:15:08;;;;;;;2.58;2.38;;;;;;;;;;4979744;28;20031;-80
2023/08/16 10:17:38;;;;;;;2.45;2.22;;;;;;;;;;4970083;29;20075;-80
2023/08/16 10:20:09;;;;;;;4.80;2.28;;;;;;;;;;4987417;28;20034;-82
2023/08/16 10:22:39;;;;;;;2.00;1.90;;;29.50;62.20;;;;;;4990516;28;20022;-81
2023/08/16 10:25:15;;;;;;;2.65;2.13;;;29.50;62.70;;;;;;4967547;29;20019;-81
2023/08/16 10:27:44;;;;;;;2.72;2.38;;;30.40;60.10;;;;;;4977853;28;20087;-82
2023/08/16 10:30:18;;;;;;;2.72;2.53;;;30.50;58.90;;;;;;4979601;28;20027;-82
2023/08/16 10:32:44;;;;;;;2.08;1.98;;;30.30;59.00;;;;;;4968473;29;20050;-81
2023/08/16 10:35:11;;;;;;;2.50;2.15;;;30.20;60.10;;;;;;4983061;28;20031;-80
2023/08/16 10:37:38;;;;;;;2.13;1.92;;;30.10;60.40;;;;;;4989675;28;20214;-80
2023/08/16 10:40:14;;;;;;;2.28;2.10;;;30.10;60.10;;;;;;4986065;28;20454;-81
2023/08/16 10:42:55;;;;;;;1.80;1.52;;;30.10;59.90;;;;;;4969076;28;20131;-80
2023/08/16 10:45:28;;;;;;;2.30;1.92;;;30.10;59.10;;;;;;4984322;28;20029;-81
2023/08/16 10:47:55;;;;;;;1.90;1.80;;;29.90;58.40;;;;;;4984373;28;20034;-80
2023/08/16 10:50:34;;;;;;;2.38;2.28;;;29.70;58.70;;;;;;4983451;28;20026;-81
2023/08/16 10:53:00;;;;;;;2.53;2.10;;;29.70;59.80;;;;;;4983984;28;20037;-81
2023/08/16 10:55:26;;;;;;;2.13;1.80;;;29.80;59.70;;;;;;4984573;28;20497;-80
2023/08/16 10:57:53;;;;;;;1.80;1.70;;;29.80;59.00;;;;;;4983259;28;20034;-81
2023/08/16 11:00:19;;;;;;;1.95;1.85;;;29.70;59.40;;;;;;4967354;28;20461;-79
2023/08/16 11:02:49;;;;;;;2.35;2.15;;;29.60;59.80;;;;;;4984299;28;20018;-82
2023/08/16 11:05:18;;;;;;;2.38;2.17;;;29.70;59.10;;;;;;4981643;28;20506;-81
2023/08/16 11:07:44;;;;;;;2.00;1.90;;;29.90;59.00;;;;;;4963454;28;20375;-81
2023/08/16 11:10:10;;;;;;;3.08;1.80;;;29.90;57.90;;;;;;4965342;29;20023;-81
2023/08/16 11:12:36;;;;;;;2.05;1.95;;;29.80;58.70;;;;;;4966453;29;20122;-82
2023/08/16 11:15:02;;;;;;;2.40;1.77;;;29.90;59.10;;;;;;4947584;29;20027;-81
2023/08/16 11:17:28;;;;;;;1.80;1.70;;;29.90;58.20;;;;;;4977788;28;20015;-80
2023/08/16 11:19:55;;;;;;;2.20;2.10;;;29.90;58.00;;;;;;4982507;28;20031;-80
2023/08/16 11:22:22;;;;;;;1.80;1.70;;;30.10;58.10;;;;;;4981852;28;20026;-80
2023/08/16 11:24:49;;;;;;;2.00;1.90;;;30.20;57.80;;;;;;4982680;28;20029;-81
2023/08/16 11:27:24;;;;;;;1.90;1.80;;;30.70;57.80;;;;;;4983905;28;20037;-80
2023/08/16 11:30:00;;;;;;;1.90;1.80;;;31.40;55.80;;;;;;4982203;28;20030;-81
2023/08/16 11:32:37;;;;;;;2.17;1.95;;;31.90;54.80;;;;;;4965782;28;20041;-82
2023/08/16 11:37:28;;;;;;;2.25;2.15;;;31.80;53.90;;;;;;5036668;23;20058;-77
2023/08/16 11:39:59;;;;;;;5.28;1.92;;;31.30;54.60;;;;;;5023662;28;20018;-79
2023/08/16 11:42:27;;;;;;;2.10;2.00;;;31.10;56.00;;;;;;5025181;28;20028;-79
2023/08/16 11:44:52;;;;;;;2.40;2.20;;;31.10;56.90;;;;;;5023371;28;20034;-79
2023/08/16 11:47:18;;;;;;;2.63;2.42;;;31.00;55.90;;;;;;5023171;28;20464;-78
2023/08/16 11:49:44;;;;;;;2.28;2.17;;;30.90;56.60;;;;;;5024039;28;20469;-79
2023/08/16 11:52:09;;;;;;;2.30;2.20;;;30.90;57.10;;;;;;5002315;28;20086;-79
2023/08/16 11:54:35;;;;;;;1.95;1.85;;;31.00;56.70;;;;;;4985293;28;20129;-79
2023/08/16 11:57:01;;;;;;;2.10;2.00;;;30.90;56.20;;;;;;4984393;28;20041;-79
2023/08/16 11:59:31;;;;;;;2.40;2.20;;;30.80;56.90;;;;;;5003195;28;20026;-79
2023/08/16 12:02:04;;;;;;;2.10;2.00;;;30.80;56.40;;;;;;5002383;28;20049;-79
2023/08/16 12:04:30;;;;;;;1.90;1.80;;;30.70;57.10;;;;;;5003012;28;20106;-78
2023/08/16 12:06:56;;;;;;;2.00;1.83;;;30.80;57.00;;;;;;5027922;28;20025;-78
2023/08/16 12:09:21;;;;;;;1.85;1.75;;;30.90;56.50;;;;;;5034250;28;20038;-78
2023/08/16 12:11:54;;;;;;;1.63;1.60;;;31.10;56.20;;;;;;5033680;28;20064;-77
2023/08/16 12:14:19;;;;;;;1.95;1.77;;;31.10;55.50;;;;;;5034920;28;20014;-77
2023/08/16 12:16:45;;;;;;;1.90;1.80;;;31.10;55.10;;;;;;5035488;28;20040;-77
2023/08/16 12:19:18;;;;;;;2.20;2.10;;;31.00;54.70;;;;;;5007156;28;20029;-77
2023/08/16 12:21:44;;;;;;;3.50;2.60;;;30.90;55.60;;;;;;5015820;28;20026;-78
2023/08/16 12:24:10;;;;;;;2.35;2.15;;;31.00;55.30;;;;;;5005089;28;20078;-79
2023/08/16 12:26:35;;;;;;;2.38;2.17;;;31.10;55.40;;;;;;5003044;28;20392;-79
2023/08/16 12:29:01;;;;;;;1.98;1.88;;;31.10;55.50;;;;;;4991635;28;20054;-79
2023/08/16 12:31:27;;;;;;;2.70;2.50;;;31.10;55.60;;;;;;5022489;28;20058;-78
2023/08/16 12:33:52;;;;;;;2.63;2.42;;;31.10;55.00;;;;;;5020122;28;20456;-78
2023/08/16 12:36:18;;;;;;;2.33;2.15;;;31.00;54.60;;;;;;5020720;28;20539;-79
2023/08/16 12:38:44;;;;;;;2.05;1.95;;;31.00;55.30;;;;;;5020547;28;20025;-79
2023/08/16 12:41:09;;;;;;;2.45;2.28;;;31.10;55.20;;;;;;5009252;28;20022;-79
2023/08/16 12:43:35;;;;;;;2.35;2.15;;;31.20;55.00;;;;;;4984360;28;20034;-78
2023/08/16 12:46:05;;;;;;;2.13;2.03;;;31.20;54.60;;;;;;5000225;28;20461;-79
2023/08/16 12:48:31;;;;;;;2.47;2.28;;;31.10;54.50;;;;;;5000125;28;20030;-78
2023/08/16 12:50:57;;;;;;;2.50;2.30;;;31.00;54.50;;;;;;5017534;28;20026;-79
2023/08/16 12:53:23;;;;;;;2.80;2.45;;;31.00;55.30;;;;;;5020596;28;20150;-79
2023/08/16 12:55:48;;;;;;;2.55;2.35;;;31.10;56.10;;;;;;5002111;28;20030;-78
2023/08/16 12:58:14;;;;;;;2.63;2.38;;;31.30;55.40;;;;;;5009245;28;20022;-79
2023/08/16 13:00:39;;;;;;;3.08;2.30;;;31.40;55.00;;;;;;5021090;28;20030;-79
2023/08/16 13:03:05;;;;;;;2.75;2.55;;;31.30;55.60;;;;;;5016304;28;20092;-77
2023/08/16 13:05:32;;;;;;;2.50;2.30;;;31.30;56.20;;;;;;5048367;28;20049;-78
2023/08/16 13:07:58;;;;;;;2.30;2.20;;;31.50;55.90;;;;;;5036995;28;20073;-77
2023/08/16 13:10:24;;;;;;;2.72;2.53;;;31.60;55.70;;;;;;5014914;28;20041;-78
2023/08/16 13:12:50;;;;;;;2.50;2.40;;;31.60;55.60;;;;;;5042348;28;20018;-77
2023/08/16 13:15:15;;;;;;;2.50;2.30;;;31.80;55.50;;;;;;5033158;28;20060;-78
2023/08/16 13:17:41;;;;;;;3.47;2.67;;;31.80;55.30;;;;;;5042902;28;20524;-78
2023/08/16 13:20:10;;;;;;;2.33;2.22;;;31.80;54.80;;;;;;5049055;28;20025;-77
2023/08/16 13:22:35;;;;;;;2.60;2.50;;;31.60;55.10;;;;;;5020188;28;20022;-78
2023/08/16 13:25:03;;;;;;;2.42;2.30;;;31.70;54.60;;;;;;5018562;28;20064;-78
2023/08/16 13:27:29;;;;;;;2.55;2.35;;;31.60;54.30;;;;;;5028683;28;20371;-78
2023/08/16 13:29:55;;;;;;;2.28;2.13;;;31.60;54.30;;;;;;5016291;28;20053;-79
2023/08/16 13:32:20;;;;;;;2.50;2.40;;;31.70;54.60;;;;;;5016907;28;20029;-77
2023/08/16 13:34:46;;;;;;;2.70;2.50;;;31.80;54.40;;;;;;5029551;28;20049;-78
2023/08/16 13:37:12;;;;;;;2.85;2.60;;;31.80;53.90;;;;;;5009183;28;20042;-77
2023/08/16 13:39:38;;;;;;;2.45;2.25;;;31.80;53.70;;;;;;5027768;28;20021;-78
2023/08/16 13:42:04;;;;;;;2.83;2.63;;;31.70;53.20;;;;;;5028105;28;20017;-79
2023/08/16 13:44:29;;;;;;;2.70;2.50;;;31.80;53.40;;;;;;5008834;28;20026;-78
2023/08/16 13:46:56;;;;;;;2.80;2.60;;;31.80;52.70;;;;;;5015662;28;20044;-77
2023/08/16 13:49:21;;;;;;;2.63;2.53;;;31.70;53.00;;;;;;5014934;28;20025;-77
2023/08/16 13:51:47;;;;;;;2.83;2.63;;;31.80;53.80;;;;;;5029740;28;20037;-78
2023/08/16 13:54:13;;;;;;;2.60;2.35;;;32.00;53.00;;;;;;5018027;28;20465;-77
2023/08/16 13:56:38;;;;;;;3.85;2.83;;;32.00;53.30;;;;;;5018129;28;20028;-78
2023/08/16 13:59:04;;;;;;;2.80;2.60;;;32.00;52.60;;;;;;5043411;28;20018;-77
2023/08/16 14:01:30;;;;;;;2.92;2.60;;;31.90;52.50;;;;;;5032759;28;20037;-77